createdAt,value
2018-04-26T00:00:49.740Z,20.57
2018-04-26T00:01:52.233Z,20.56
2018-04-26T00:02:54.763Z,20.57
2018-04-26T00:03:57.250Z,20.56
2018-04-26T00:04:59.718Z,20.57
2018-04-26T00:06:02.187Z,20.56
2018-04-26T00:07:04.689Z,20.57
2018-04-26T00:08:07.183Z,20.57
2018-04-26T00:09:09.655Z,20.58
2018-04-26T00:10:12.163Z,20.57
2018-04-26T00:11:14.680Z,20.58
2018-04-26T00:12:17.209Z,20.57
2018-04-26T00:13:19.708Z,20.58
2018-04-26T00:14:22.202Z,20.58
2018-04-26T00:15:24.693Z,20.57
2018-04-26T00:16:27.185Z,20.57
2018-04-26T00:17:29.675Z,20.58
2018-04-26T00:18:32.150Z,20.56
2018-04-26T00:19:34.626Z,20.56
2018-04-26T00:20:37.120Z,20.56
2018-04-26T00:21:39.605Z,20.55
2018-04-26T00:22:42.123Z,20.56
2018-04-26T00:23:44.599Z,20.55
2018-04-26T00:24:47.078Z,20.54
2018-04-26T00:25:49.565Z,20.54
2018-04-26T00:26:52.095Z,20.54
2018-04-26T00:27:54.572Z,20.54
2018-04-26T00:28:57.055Z,20.52
2018-04-26T00:29:59.555Z,20.52
2018-04-26T00:31:02.105Z,20.51
2018-04-26T00:32:04.662Z,20.50
2018-04-26T00:33:07.149Z,20.50
2018-04-26T00:34:09.636Z,20.49
2018-04-26T00:35:12.140Z,20.48
2018-04-26T00:36:14.629Z,20.47
2018-04-26T00:37:17.132Z,20.46
2018-04-26T00:38:19.630Z,20.45
2018-04-26T00:39:22.178Z,20.44
2018-04-26T00:40:24.657Z,20.44
2018-04-26T00:41:27.140Z,20.44
2018-04-26T00:42:29.626Z,20.43
2018-04-26T00:43:32.115Z,20.42
2018-04-26T00:44:34.605Z,20.40
2018-04-26T00:45:37.089Z,20.41
2018-04-26T00:46:39.628Z,20.40
2018-04-26T00:47:42.128Z,20.40
2018-04-26T00:48:44.613Z,20.39
2018-04-26T00:49:47.115Z,20.39
2018-04-26T00:50:49.608Z,20.39
2018-04-26T00:52:00.985Z,20.39
2018-04-26T00:53:03.543Z,20.39
2018-04-26T00:54:06.033Z,20.39
2018-04-26T00:55:08.525Z,20.38
2018-04-26T00:56:11.040Z,20.38
2018-04-26T00:57:13.511Z,20.37
2018-04-26T00:58:16.021Z,20.37
2018-04-26T00:59:18.525Z,20.37
2018-04-26T01:00:21.012Z,20.36
2018-04-26T01:01:23.528Z,20.36
2018-04-26T01:02:26.035Z,20.36
2018-04-26T01:03:28.556Z,20.35
2018-04-26T01:04:31.049Z,20.34
2018-04-26T01:05:33.534Z,20.34
2018-04-26T01:06:36.007Z,20.33
2018-04-26T01:07:38.500Z,20.34
2018-04-26T01:08:41.035Z,20.33
2018-04-26T01:09:43.526Z,20.32
2018-04-26T01:10:46.013Z,20.32
2018-04-26T01:11:48.606Z,20.32
2018-04-26T01:12:51.162Z,20.31
2018-04-26T01:13:53.722Z,20.31
2018-04-26T01:14:56.216Z,20.31
2018-04-26T01:15:58.739Z,20.31
2018-04-26T01:17:01.230Z,20.30
2018-04-26T01:18:03.710Z,20.30
2018-04-26T01:19:06.231Z,20.30
2018-04-26T01:20:08.781Z,20.30
2018-04-26T01:21:11.273Z,20.30
2018-04-26T01:22:13.776Z,20.29
2018-04-26T01:23:16.269Z,20.28
2018-04-26T01:24:18.781Z,20.28
2018-04-26T01:25:21.273Z,20.28
2018-04-26T01:26:23.761Z,20.27
2018-04-26T01:27:26.245Z,20.28
2018-04-26T01:28:28.735Z,20.28
2018-04-26T01:29:31.257Z,20.27
2018-04-26T01:30:33.760Z,20.27
2018-04-26T01:31:36.315Z,20.27
2018-04-26T01:32:38.809Z,20.26
2018-04-26T01:33:41.296Z,20.27
2018-04-26T01:34:43.815Z,20.25
2018-04-26T01:35:46.302Z,20.25
2018-04-26T01:37:00.695Z,20.25
2018-04-26T01:38:03.184Z,20.25
2018-04-26T01:39:06.421Z,20.24
2018-04-26T01:40:08.922Z,20.25
2018-04-26T01:41:11.431Z,20.25
2018-04-26T01:42:13.917Z,20.24
2018-04-26T01:43:16.444Z,20.24
2018-04-26T01:44:18.932Z,20.24
2018-04-26T01:45:21.423Z,20.25
2018-04-26T01:46:23.908Z,20.25
2018-04-26T01:47:26.492Z,20.25
2018-04-26T01:48:28.977Z,20.25
2018-04-26T01:49:31.479Z,20.26
2018-04-26T01:50:33.978Z,20.25
2018-04-26T01:51:36.458Z,20.26
2018-04-26T01:52:38.949Z,20.27
2018-04-26T01:53:41.433Z,20.27
2018-04-26T01:54:43.918Z,20.26
2018-04-26T01:55:46.435Z,20.26
2018-04-26T01:56:48.942Z,20.27
2018-04-26T01:57:51.431Z,20.26
2018-04-26T01:58:53.930Z,20.27
2018-04-26T01:59:56.436Z,20.26
2018-04-26T02:00:58.940Z,20.26
2018-04-26T02:02:01.438Z,20.27
2018-04-26T02:03:03.942Z,20.27
2018-04-26T02:04:06.644Z,20.27
2018-04-26T02:05:09.154Z,20.27
2018-04-26T02:06:11.671Z,20.27
2018-04-26T02:07:14.160Z,20.27
2018-04-26T02:08:16.653Z,20.27
2018-04-26T02:09:19.138Z,20.28
2018-04-26T02:10:21.645Z,20.28
2018-04-26T02:11:24.156Z,20.27
2018-04-26T02:12:26.640Z,20.27
2018-04-26T02:13:29.137Z,20.27
2018-04-26T02:14:31.639Z,20.27
2018-04-26T02:15:34.111Z,20.27
2018-04-26T02:16:36.637Z,20.27
2018-04-26T02:17:39.118Z,20.26
2018-04-26T02:18:41.619Z,20.26
2018-04-26T02:19:44.105Z,20.25
2018-04-26T02:20:46.597Z,20.25
2018-04-26T02:21:49.109Z,20.26
2018-04-26T02:22:51.601Z,20.25
2018-04-26T02:23:54.157Z,20.24
2018-04-26T02:24:56.667Z,20.25
2018-04-26T02:25:59.138Z,20.26
2018-04-26T02:27:01.645Z,20.25
2018-04-26T02:28:04.143Z,20.25
2018-04-26T02:29:06.643Z,20.24
2018-04-26T02:30:09.145Z,20.25
2018-04-26T02:31:11.680Z,20.24
2018-04-26T02:32:14.231Z,20.23
2018-04-26T02:33:16.792Z,20.24
2018-04-26T02:34:19.350Z,20.23
2018-04-26T02:35:21.837Z,20.22
2018-04-26T02:36:24.345Z,20.23
2018-04-26T02:37:26.876Z,20.22
2018-04-26T02:38:29.359Z,20.22
2018-04-26T02:39:31.851Z,20.21
2018-04-26T02:40:34.396Z,20.22
2018-04-26T02:41:36.889Z,20.22
2018-04-26T02:42:39.411Z,20.21
2018-04-26T02:43:41.918Z,20.21
2018-04-26T02:44:44.417Z,20.20
2018-04-26T02:45:46.920Z,20.21
2018-04-26T02:46:49.421Z,20.20
2018-04-26T02:47:51.942Z,20.21
2018-04-26T02:48:54.415Z,20.20
2018-04-26T02:49:56.905Z,20.20
2018-04-26T02:50:59.395Z,20.20
2018-04-26T02:52:01.888Z,20.19
2018-04-26T02:53:04.393Z,20.19
2018-04-26T02:54:06.884Z,20.18
2018-04-26T02:55:09.427Z,20.18
2018-04-26T02:56:11.988Z,20.18
2018-04-26T02:57:14.548Z,20.18
2018-04-26T02:58:17.060Z,20.18
2018-04-26T02:59:19.567Z,20.17
2018-04-26T03:00:22.073Z,20.17
2018-04-26T03:01:24.576Z,20.17
2018-04-26T03:02:27.142Z,20.17
2018-04-26T03:03:29.666Z,20.17
2018-04-26T03:04:32.156Z,20.18
2018-04-26T03:05:34.664Z,20.16
2018-04-26T03:06:37.172Z,20.17
2018-04-26T03:07:39.669Z,20.17
2018-04-26T03:08:42.158Z,20.17
2018-04-26T03:09:44.631Z,20.16
2018-04-26T03:10:47.125Z,20.16
2018-04-26T03:11:49.617Z,20.16
2018-04-26T03:12:52.133Z,20.16
2018-04-26T03:13:54.639Z,20.15
2018-04-26T03:14:57.115Z,20.15
2018-04-26T03:15:59.602Z,20.14
2018-04-26T03:17:02.109Z,20.15
2018-04-26T03:18:04.617Z,20.14
2018-04-26T03:19:07.109Z,20.14
2018-04-26T03:20:09.639Z,20.14
2018-04-26T03:21:12.124Z,20.14
2018-04-26T03:22:14.598Z,20.14
2018-04-26T03:23:17.220Z,20.14
2018-04-26T03:24:19.728Z,20.13
2018-04-26T03:25:22.216Z,20.13
2018-04-26T03:26:24.729Z,20.13
2018-04-26T03:27:27.211Z,20.13
2018-04-26T03:28:29.723Z,20.12
2018-04-26T03:29:32.214Z,20.12
2018-04-26T03:30:34.715Z,20.12
2018-04-26T03:31:37.219Z,20.11
2018-04-26T03:32:39.735Z,20.12
2018-04-26T03:33:42.214Z,20.11
2018-04-26T03:34:44.705Z,20.11
2018-04-26T03:35:47.196Z,20.11
2018-04-26T03:36:49.696Z,20.11
2018-04-26T03:37:52.205Z,20.11
2018-04-26T03:38:54.696Z,20.10
2018-04-26T03:39:57.192Z,20.10
2018-04-26T03:40:59.680Z,20.10
2018-04-26T03:42:02.199Z,20.10
2018-04-26T03:43:04.686Z,20.10
2018-04-26T03:44:07.188Z,20.10
2018-04-26T03:45:09.684Z,20.10
2018-04-26T03:46:12.188Z,20.10
2018-04-26T03:47:14.768Z,20.10
2018-04-26T03:48:17.263Z,20.10
2018-04-26T03:49:19.786Z,20.10
2018-04-26T03:50:22.294Z,20.10
2018-04-26T03:51:24.800Z,20.10
2018-04-26T03:52:27.300Z,20.10
2018-04-26T03:53:29.790Z,20.09
2018-04-26T03:54:32.291Z,20.09
2018-04-26T03:55:34.796Z,20.09
2018-04-26T03:56:37.308Z,20.10
2018-04-26T03:57:39.809Z,20.10
2018-04-26T03:58:42.317Z,20.10
2018-04-26T03:59:56.606Z,20.09
2018-04-26T04:01:11.001Z,20.08
2018-04-26T04:02:25.508Z,20.08
2018-04-26T04:03:39.964Z,20.08
2018-04-26T04:04:54.161Z,20.07
2018-04-26T04:07:29.583Z,20.07
2018-04-26T04:08:32.175Z,20.08
2018-04-26T04:09:34.650Z,20.08
2018-04-26T04:10:37.127Z,20.07
2018-04-26T04:11:39.637Z,20.07
2018-04-26T04:12:42.181Z,20.08
2018-04-26T04:13:44.731Z,20.07
2018-04-26T04:14:47.193Z,20.07
2018-04-26T04:15:49.684Z,20.07
2018-04-26T04:16:52.206Z,20.06
2018-04-26T04:17:54.717Z,20.06
2018-04-26T04:18:57.228Z,20.07
2018-04-26T04:19:59.732Z,20.06
2018-04-26T04:21:02.209Z,20.05
2018-04-26T04:22:04.701Z,20.06
2018-04-26T04:23:07.204Z,20.06
2018-04-26T04:24:09.689Z,20.06
2018-04-26T04:25:12.222Z,20.05
2018-04-26T04:26:14.742Z,20.05
2018-04-26T04:27:17.239Z,20.05
2018-04-26T04:28:19.835Z,20.05
2018-04-26T04:29:22.333Z,20.04
2018-04-26T04:30:24.822Z,20.05
2018-04-26T04:31:27.295Z,20.04
2018-04-26T04:32:29.779Z,20.04
2018-04-26T04:33:32.290Z,20.04
2018-04-26T04:34:34.799Z,20.04
2018-04-26T04:35:37.278Z,20.03
2018-04-26T04:36:39.771Z,20.04
2018-04-26T04:37:42.330Z,20.04
2018-04-26T04:38:44.816Z,20.04
2018-04-26T04:39:47.302Z,20.04
2018-04-26T04:40:49.803Z,20.03
2018-04-26T04:41:52.365Z,20.03
2018-04-26T04:42:54.924Z,20.02
2018-04-26T04:43:57.483Z,20.02
2018-04-26T04:45:00.004Z,20.02
2018-04-26T04:46:02.504Z,20.02
2018-04-26T04:47:04.989Z,20.01
2018-04-26T04:48:07.514Z,20.01
2018-04-26T04:49:10.183Z,20.00
2018-04-26T04:50:12.681Z,20.00
2018-04-26T04:51:15.178Z,20.00
2018-04-26T04:52:17.646Z,20.00
2018-04-26T04:53:20.151Z,20.00
2018-04-26T04:54:22.675Z,19.99
2018-04-26T04:55:25.173Z,19.99
2018-04-26T04:56:27.673Z,19.99
2018-04-26T04:57:30.176Z,19.98
2018-04-26T04:58:32.679Z,19.98
2018-04-26T04:59:35.207Z,19.98
2018-04-26T05:00:37.714Z,19.98
2018-04-26T05:01:40.233Z,19.98
2018-04-26T05:02:42.707Z,19.98
2018-04-26T05:03:45.193Z,19.99
2018-04-26T05:04:47.688Z,20.00
2018-04-26T05:05:50.223Z,20.00
2018-04-26T05:06:52.738Z,20.01
2018-04-26T05:07:55.232Z,20.00
2018-04-26T05:08:57.725Z,20.01
2018-04-26T05:10:00.226Z,20.03
2018-04-26T05:11:02.721Z,20.02
2018-04-26T05:12:05.205Z,19.99
2018-04-26T05:13:07.691Z,19.96
2018-04-26T05:14:10.170Z,19.93
2018-04-26T05:15:12.677Z,19.90
2018-04-26T05:16:15.241Z,19.83
2018-04-26T05:17:17.720Z,19.78
2018-04-26T05:18:20.227Z,19.73
2018-04-26T05:19:22.737Z,19.72
2018-04-26T05:20:25.467Z,19.62
2018-04-26T05:21:27.956Z,19.55
2018-04-26T05:22:30.447Z,19.49
2018-04-26T05:23:33.825Z,19.39
2018-04-26T05:24:36.337Z,19.34
2018-04-26T05:25:38.943Z,19.31
2018-04-26T05:26:41.425Z,19.29
2018-04-26T05:27:43.913Z,19.27
2018-04-26T05:28:46.419Z,19.25
2018-04-26T05:29:48.984Z,19.26
2018-04-26T05:30:51.520Z,19.27
2018-04-26T05:31:54.013Z,19.28
2018-04-26T05:32:56.535Z,19.30
2018-04-26T05:33:59.039Z,19.32
2018-04-26T05:35:01.514Z,19.34
2018-04-26T05:36:04.091Z,19.37
2018-04-26T05:37:06.616Z,19.39
2018-04-26T05:38:09.119Z,19.41
2018-04-26T05:39:11.619Z,19.42
2018-04-26T05:40:14.109Z,19.45
2018-04-26T05:41:16.599Z,19.46
2018-04-26T05:42:19.099Z,19.48
2018-04-26T05:43:21.681Z,19.49
2018-04-26T05:44:24.099Z,19.51
2018-04-26T05:45:26.599Z,19.52
2018-04-26T05:46:29.105Z,19.53
2018-04-26T05:47:31.611Z,19.54
2018-04-26T05:48:34.104Z,19.55
2018-04-26T05:49:36.575Z,19.55
2018-04-26T05:50:39.080Z,19.56
2018-04-26T05:51:41.590Z,19.57
2018-04-26T05:52:44.968Z,19.57
2018-04-26T05:53:47.461Z,19.57
2018-04-26T05:54:50.015Z,19.59
2018-04-26T05:55:52.588Z,19.59
2018-04-26T05:56:55.007Z,19.59
2018-04-26T05:57:57.482Z,19.59
2018-04-26T05:58:59.954Z,19.60
2018-04-26T06:00:02.441Z,19.60
2018-04-26T06:01:04.933Z,19.60
2018-04-26T06:02:07.442Z,19.61
2018-04-26T06:03:09.919Z,19.61
2018-04-26T06:04:12.419Z,19.60
2018-04-26T06:05:14.923Z,19.61
2018-04-26T06:06:17.395Z,19.61
2018-04-26T06:07:19.896Z,19.62
2018-04-26T06:08:22.368Z,19.61
2018-04-26T06:09:24.953Z,19.61
2018-04-26T06:10:27.458Z,19.61
2018-04-26T06:11:29.952Z,19.61
2018-04-26T06:12:32.458Z,19.61
2018-04-26T06:13:34.945Z,19.61
2018-04-26T06:14:37.450Z,19.61
2018-04-26T06:15:39.936Z,19.61
2018-04-26T06:16:42.441Z,19.61
2018-04-26T06:17:44.983Z,19.61
2018-04-26T06:18:47.481Z,19.61
2018-04-26T06:19:49.968Z,19.61
2018-04-26T06:20:52.457Z,19.61
2018-04-26T06:21:54.955Z,19.61
2018-04-26T06:22:57.475Z,19.61
2018-04-26T06:23:59.978Z,19.60
2018-04-26T06:25:02.492Z,19.61
2018-04-26T06:26:04.967Z,19.60
2018-04-26T06:27:07.452Z,19.61
2018-04-26T06:28:09.944Z,19.61
2018-04-26T06:29:12.441Z,19.60
2018-04-26T06:30:14.931Z,19.60
2018-04-26T06:31:17.443Z,19.60
2018-04-26T06:32:19.929Z,19.60
2018-04-26T06:33:22.440Z,19.59
2018-04-26T06:34:24.942Z,19.60
2018-04-26T06:35:27.419Z,19.60
2018-04-26T06:36:29.911Z,19.59
2018-04-26T06:37:32.431Z,19.59
2018-04-26T06:38:34.914Z,19.59
2018-04-26T06:39:37.404Z,19.59
2018-04-26T06:40:39.889Z,19.59
2018-04-26T06:41:42.368Z,19.58
2018-04-26T06:42:44.936Z,19.58
2018-04-26T06:43:47.449Z,19.58
2018-04-26T06:44:49.960Z,19.58
2018-04-26T06:45:52.464Z,19.58
2018-04-26T06:46:54.973Z,19.57
2018-04-26T06:47:57.557Z,19.57
2018-04-26T06:49:00.023Z,19.58
2018-04-26T06:50:02.528Z,19.56
2018-04-26T06:51:05.004Z,19.57
2018-04-26T06:52:07.513Z,19.56
2018-04-26T06:53:10.012Z,19.56
2018-04-26T06:54:12.511Z,19.56
2018-04-26T06:55:14.997Z,19.56
2018-04-26T06:56:17.481Z,19.55
2018-04-26T06:57:19.972Z,19.55
2018-04-26T06:58:22.443Z,19.55
2018-04-26T06:59:24.952Z,19.55
2018-04-26T07:00:27.544Z,19.55
2018-04-26T07:01:29.977Z,19.55
2018-04-26T07:02:32.472Z,19.56
2018-04-26T07:03:34.950Z,19.56
2018-04-26T07:04:37.457Z,19.56
2018-04-26T07:05:39.979Z,19.56
2018-04-26T07:06:42.471Z,19.56
2018-04-26T07:07:44.950Z,19.56
2018-04-26T07:08:47.422Z,19.56
2018-04-26T07:09:49.924Z,19.56
2018-04-26T07:10:52.431Z,19.55
2018-04-26T07:11:54.907Z,19.55
2018-04-26T07:12:57.393Z,19.55
2018-04-26T07:13:59.894Z,19.55
2018-04-26T07:15:02.416Z,19.55
2018-04-26T07:16:04.928Z,19.55
2018-04-26T07:17:07.482Z,19.55
2018-04-26T07:18:09.988Z,19.54
2018-04-26T07:19:12.494Z,19.54
2018-04-26T07:20:14.983Z,19.54
2018-04-26T07:21:17.475Z,19.54
2018-04-26T07:22:19.961Z,19.53
2018-04-26T07:23:22.452Z,19.53
2018-04-26T07:24:24.936Z,19.53
2018-04-26T07:25:27.650Z,19.53
2018-04-26T07:26:30.126Z,19.53
2018-04-26T07:27:32.627Z,19.53
2018-04-26T07:28:35.285Z,19.53
2018-04-26T07:29:37.793Z,19.53
2018-04-26T07:30:40.329Z,19.53
2018-04-26T07:31:42.817Z,19.53
2018-04-26T07:32:45.323Z,19.54
2018-04-26T07:33:47.812Z,19.54
2018-04-26T07:34:50.386Z,19.55
2018-04-26T07:35:52.846Z,19.55
2018-04-26T07:36:55.361Z,19.56
2018-04-26T07:37:57.849Z,19.56
2018-04-26T07:39:00.366Z,19.57
2018-04-26T07:40:02.877Z,19.57
2018-04-26T07:41:05.374Z,19.57
2018-04-26T07:42:07.898Z,19.57
2018-04-26T07:43:10.372Z,19.58
2018-04-26T07:44:12.867Z,19.57
2018-04-26T07:45:15.363Z,19.57
2018-04-26T07:46:17.869Z,19.58
2018-04-26T07:47:20.365Z,19.57
2018-04-26T07:48:22.852Z,19.57
2018-04-26T07:49:25.355Z,19.57
2018-04-26T07:50:27.839Z,19.58
2018-04-26T07:51:30.345Z,19.58
2018-04-26T07:52:32.837Z,19.58
2018-04-26T07:53:35.323Z,19.59
2018-04-26T07:54:37.821Z,19.59
2018-04-26T07:55:40.291Z,19.59
2018-04-26T07:56:42.811Z,19.60
2018-04-26T07:57:45.312Z,19.60
2018-04-26T07:58:47.782Z,19.59
2018-04-26T07:59:50.265Z,19.59
2018-04-26T08:00:52.738Z,19.59
2018-04-26T08:01:55.227Z,19.59
2018-04-26T08:02:57.718Z,19.58
2018-04-26T08:04:00.205Z,19.58
2018-04-26T08:05:02.717Z,19.58
2018-04-26T08:06:05.223Z,19.57
2018-04-26T08:07:07.747Z,19.57
2018-04-26T08:08:10.247Z,19.58
2018-04-26T08:09:12.719Z,19.57
2018-04-26T08:10:15.217Z,19.57
2018-04-26T08:11:17.738Z,19.57
2018-04-26T08:12:20.300Z,19.58
2018-04-26T08:13:22.857Z,19.57
2018-04-26T08:14:25.361Z,19.57
2018-04-26T08:15:27.868Z,19.58
2018-04-26T08:16:30.375Z,19.57
2018-04-26T08:17:32.889Z,19.57
2018-04-26T08:18:35.372Z,19.57
2018-04-26T08:19:37.967Z,19.56
2018-04-26T08:20:40.421Z,19.57
2018-04-26T08:21:42.927Z,19.56
2018-04-26T08:22:45.437Z,19.56
2018-04-26T08:23:47.910Z,19.55
2018-04-26T08:24:50.412Z,19.55
2018-04-26T08:25:52.883Z,19.55
2018-04-26T08:26:55.443Z,19.55
2018-04-26T08:27:57.935Z,19.55
2018-04-26T08:29:00.440Z,19.55
2018-04-26T08:30:02.920Z,19.55
2018-04-26T08:31:05.394Z,19.55
2018-04-26T08:32:07.877Z,19.54
2018-04-26T08:33:10.380Z,19.54
2018-04-26T08:34:12.873Z,19.53
2018-04-26T08:35:15.380Z,19.54
2018-04-26T08:36:17.872Z,19.53
2018-04-26T08:37:20.357Z,19.53
2018-04-26T08:38:22.869Z,19.53
2018-04-26T08:39:25.379Z,19.52
2018-04-26T08:40:31.199Z,19.52
2018-04-26T08:41:33.656Z,19.53
2018-04-26T08:42:36.164Z,19.52
2018-04-26T08:43:38.647Z,19.53
2018-04-26T08:44:41.147Z,19.52
2018-04-26T08:45:43.645Z,19.52
2018-04-26T08:46:46.129Z,19.52
2018-04-26T08:47:48.631Z,19.52
2018-04-26T08:48:51.133Z,19.52
2018-04-26T08:49:53.626Z,19.53
2018-04-26T08:50:56.097Z,19.53
2018-04-26T08:51:58.784Z,19.54
2018-04-26T08:53:01.306Z,19.54
2018-04-26T08:54:03.973Z,19.54
2018-04-26T08:55:06.496Z,19.55
2018-04-26T08:56:08.991Z,19.55
2018-04-26T08:57:11.493Z,19.55
2018-04-26T08:58:13.987Z,19.55
2018-04-26T08:59:16.524Z,19.55
2018-04-26T09:00:19.085Z,19.56
2018-04-26T09:01:21.573Z,19.56
2018-04-26T09:02:24.062Z,19.56
2018-04-26T09:03:26.543Z,19.57
2018-04-26T09:04:29.059Z,19.57
2018-04-26T09:05:31.560Z,19.58
2018-04-26T09:06:36.395Z,19.58
2018-04-26T09:07:39.168Z,19.59
2018-04-26T09:08:41.656Z,19.60
2018-04-26T09:09:44.157Z,19.60
2018-04-26T09:10:46.653Z,19.60
2018-04-26T09:11:49.155Z,19.60
2018-04-26T09:12:51.644Z,19.60
2018-04-26T09:13:54.115Z,19.61
2018-04-26T09:14:56.616Z,19.61
2018-04-26T09:15:59.342Z,19.61
2018-04-26T09:17:01.839Z,19.61
2018-04-26T09:18:04.319Z,19.61
2018-04-26T09:19:06.809Z,19.61
2018-04-26T09:20:09.335Z,19.61
2018-04-26T09:21:11.807Z,19.62
2018-04-26T09:22:14.307Z,19.62
2018-04-26T09:23:16.793Z,19.63
2018-04-26T09:24:19.280Z,19.63
2018-04-26T09:25:21.787Z,19.64
2018-04-26T09:26:24.331Z,19.64
2018-04-26T09:27:26.807Z,19.65
2018-04-26T09:28:29.337Z,19.66
2018-04-26T09:29:31.832Z,19.66
2018-04-26T09:30:34.429Z,19.67
2018-04-26T09:31:36.998Z,19.66
2018-04-26T09:32:39.505Z,19.66
2018-04-26T09:33:41.993Z,19.66
2018-04-26T09:34:44.477Z,19.66
2018-04-26T09:35:46.974Z,19.66
2018-04-26T09:36:49.477Z,19.65
2018-04-26T09:37:51.997Z,19.65
2018-04-26T09:38:54.592Z,19.64
2018-04-26T09:39:57.104Z,19.65
2018-04-26T09:40:59.608Z,19.65
2018-04-26T09:42:02.083Z,19.65
2018-04-26T09:43:04.556Z,19.66
2018-04-26T09:44:07.221Z,19.67
2018-04-26T09:45:09.694Z,19.66
2018-04-26T09:46:12.182Z,19.66
2018-04-26T09:47:14.690Z,19.67
2018-04-26T09:48:17.166Z,19.67
2018-04-26T09:49:19.661Z,19.67
2018-04-26T09:50:22.145Z,19.67
2018-04-26T09:51:24.647Z,19.67
2018-04-26T09:52:27.133Z,19.66
2018-04-26T09:53:29.597Z,19.66
2018-04-26T09:54:32.091Z,19.66
2018-04-26T09:55:34.676Z,19.66
2018-04-26T09:56:37.230Z,19.65
2018-04-26T09:57:39.739Z,19.65
2018-04-26T09:58:42.245Z,19.65
2018-04-26T09:59:44.737Z,19.63
2018-04-26T10:00:53.819Z,19.64
2018-04-26T10:02:02.007Z,19.63
2018-04-26T10:03:10.335Z,19.63
2018-04-26T10:04:14.774Z,19.61
2018-04-26T10:05:17.244Z,19.61
2018-04-26T10:06:34.213Z,19.61
2018-04-26T10:07:36.726Z,19.60
2018-04-26T10:08:39.232Z,19.61
2018-04-26T10:09:41.709Z,19.60
2018-04-26T10:10:44.210Z,19.60
2018-04-26T10:11:46.682Z,19.60
2018-04-26T10:12:49.171Z,19.59
2018-04-26T10:13:51.657Z,19.60
2018-04-26T10:14:54.159Z,19.59
2018-04-26T10:15:56.652Z,19.59
2018-04-26T10:16:59.150Z,19.58
2018-04-26T10:18:01.670Z,19.58
2018-04-26T10:19:04.177Z,19.58
2018-04-26T10:20:06.647Z,19.58
2018-04-26T10:21:09.128Z,19.58
2018-04-26T10:22:11.652Z,19.58
2018-04-26T10:23:14.153Z,19.58
2018-04-26T10:24:16.638Z,19.58
2018-04-26T10:25:19.125Z,19.58
2018-04-26T10:26:21.686Z,19.58
2018-04-26T10:27:24.163Z,19.58
2018-04-26T10:28:26.660Z,19.58
2018-04-26T10:29:29.251Z,19.58
2018-04-26T10:30:31.743Z,19.57
2018-04-26T10:31:34.269Z,19.57
2018-04-26T10:32:36.753Z,19.56
2018-04-26T10:33:39.293Z,19.57
2018-04-26T10:34:41.851Z,19.56
2018-04-26T10:35:44.363Z,19.56
2018-04-26T10:36:46.875Z,19.55
2018-04-26T10:37:49.380Z,19.55
2018-04-26T10:38:51.875Z,19.55
2018-04-26T10:39:54.360Z,19.55
2018-04-26T10:40:56.839Z,19.54
2018-04-26T10:41:59.323Z,19.54
2018-04-26T10:43:01.827Z,19.53
2018-04-26T10:44:04.355Z,19.53
2018-04-26T10:45:06.840Z,19.53
2018-04-26T10:46:09.349Z,19.53
2018-04-26T10:47:11.863Z,19.53
2018-04-26T10:48:14.350Z,19.52
2018-04-26T10:49:16.863Z,19.53
2018-04-26T10:50:19.365Z,19.53
2018-04-26T10:51:21.838Z,19.53
2018-04-26T10:52:24.328Z,19.52
2018-04-26T10:53:26.794Z,19.53
2018-04-26T10:54:29.323Z,19.52
2018-04-26T10:55:31.830Z,19.52
2018-04-26T10:56:34.339Z,19.52
2018-04-26T10:57:36.847Z,19.52
2018-04-26T10:58:39.333Z,19.53
2018-04-26T10:59:41.832Z,19.52
2018-04-26T11:00:44.335Z,19.52
2018-04-26T11:01:46.825Z,19.51
2018-04-26T11:02:49.324Z,19.52
2018-04-26T11:03:51.873Z,19.52
2018-04-26T11:04:54.453Z,19.52
2018-04-26T11:05:56.956Z,19.52
2018-04-26T11:06:59.461Z,19.52
2018-04-26T11:08:01.940Z,19.52
2018-04-26T11:09:04.444Z,19.52
2018-04-26T11:10:06.953Z,19.52
2018-04-26T11:11:09.455Z,19.51
2018-04-26T11:12:11.959Z,19.53
2018-04-26T11:13:14.454Z,19.52
2018-04-26T11:14:16.927Z,19.52
2018-04-26T11:15:19.455Z,19.52
2018-04-26T11:16:21.930Z,19.51
2018-04-26T11:17:24.458Z,19.51
2018-04-26T11:18:27.022Z,19.51
2018-04-26T11:19:29.593Z,19.51
2018-04-26T11:20:32.143Z,19.51
2018-04-26T11:21:34.622Z,19.51
2018-04-26T11:22:37.112Z,19.51
2018-04-26T11:23:39.598Z,19.50
2018-04-26T11:24:42.089Z,19.51
2018-04-26T11:25:44.611Z,19.51
2018-04-26T11:26:47.133Z,19.51
2018-04-26T11:27:49.625Z,19.52
2018-04-26T11:28:52.129Z,19.53
2018-04-26T11:29:54.608Z,19.54
2018-04-26T11:30:57.164Z,19.55
2018-04-26T11:31:59.629Z,19.56
2018-04-26T11:33:02.116Z,19.55
2018-04-26T11:34:04.612Z,19.55
2018-04-26T11:35:07.101Z,19.55
2018-04-26T11:36:09.637Z,19.55
2018-04-26T11:37:12.128Z,19.55
2018-04-26T11:38:14.625Z,19.55
2018-04-26T11:39:17.103Z,19.55
2018-04-26T11:40:19.603Z,19.55
2018-04-26T11:41:22.118Z,19.54
2018-04-26T11:42:24.602Z,19.54
2018-04-26T11:43:27.132Z,19.54
2018-04-26T11:44:29.693Z,19.53
2018-04-26T11:45:32.250Z,19.54
2018-04-26T11:46:34.874Z,19.54
2018-04-26T11:47:37.326Z,19.55
2018-04-26T11:48:39.825Z,19.55
2018-04-26T11:49:42.316Z,19.56
2018-04-26T11:50:44.903Z,19.57
2018-04-26T11:51:47.398Z,19.57
2018-04-26T11:52:49.909Z,19.58
2018-04-26T11:53:52.412Z,19.58
2018-04-26T11:54:54.896Z,19.59
2018-04-26T11:55:57.405Z,19.59
2018-04-26T11:56:59.912Z,19.59
2018-04-26T11:58:02.423Z,19.60
2018-04-26T11:59:04.913Z,19.60
2018-04-26T12:00:07.405Z,19.61
2018-04-26T12:01:09.930Z,19.61
2018-04-26T12:02:12.486Z,19.60
2018-04-26T12:03:14.954Z,19.61
2018-04-26T12:04:17.460Z,19.61
2018-04-26T12:05:19.963Z,19.61
2018-04-26T12:06:22.465Z,19.61
2018-04-26T12:07:24.938Z,19.61
2018-04-26T12:08:27.432Z,19.61
2018-04-26T12:09:29.925Z,19.62
2018-04-26T12:10:32.830Z,19.61
2018-04-26T12:11:35.543Z,19.61
2018-04-26T12:12:38.038Z,19.61
2018-04-26T12:13:40.547Z,19.60
2018-04-26T12:14:43.033Z,19.60
2018-04-26T12:15:45.520Z,19.60
2018-04-26T12:16:48.015Z,19.60
2018-04-26T12:17:50.502Z,19.60
2018-04-26T12:18:52.990Z,19.59
2018-04-26T12:19:55.494Z,19.58
2018-04-26T12:20:57.986Z,19.58
2018-04-26T12:22:00.532Z,19.58
2018-04-26T12:23:03.082Z,19.57
2018-04-26T12:24:05.706Z,19.57
2018-04-26T12:25:08.205Z,19.57
2018-04-26T12:26:10.689Z,19.57
2018-04-26T12:27:13.175Z,19.57
2018-04-26T12:28:15.685Z,19.57
2018-04-26T12:29:18.329Z,19.57
2018-04-26T12:30:20.756Z,19.57
2018-04-26T12:31:23.251Z,19.57
2018-04-26T12:32:25.772Z,19.58
2018-04-26T12:33:28.433Z,19.57
2018-04-26T12:34:30.929Z,19.57
2018-04-26T12:35:33.446Z,19.57
2018-04-26T12:36:35.998Z,19.57
2018-04-26T12:37:38.489Z,19.58
2018-04-26T12:38:41.027Z,19.58
2018-04-26T12:39:43.526Z,19.58
2018-04-26T12:40:45.998Z,19.58
2018-04-26T12:41:48.488Z,19.57
2018-04-26T12:42:51.025Z,19.58
2018-04-26T12:43:53.573Z,19.57
2018-04-26T12:44:56.044Z,19.58
2018-04-26T12:45:58.533Z,19.57
2018-04-26T12:47:01.017Z,19.57
2018-04-26T12:48:03.605Z,19.57
2018-04-26T12:49:06.170Z,19.57
2018-04-26T12:50:08.725Z,19.57
2018-04-26T12:51:11.287Z,19.57
2018-04-26T12:52:13.796Z,19.57
2018-04-26T12:53:16.317Z,19.56
2018-04-26T12:54:18.810Z,19.57
2018-04-26T12:55:21.300Z,19.57
2018-04-26T12:56:23.797Z,19.57
2018-04-26T12:57:26.350Z,19.56
2018-04-26T12:58:28.901Z,19.57
2018-04-26T12:59:31.461Z,19.56
2018-04-26T13:00:34.019Z,19.57
2018-04-26T13:01:36.576Z,19.57
2018-04-26T13:02:39.139Z,19.56
2018-04-26T13:03:41.698Z,19.56
2018-04-26T13:04:44.259Z,19.56
2018-04-26T13:05:46.745Z,19.56
2018-04-26T13:06:49.275Z,19.56
2018-04-26T13:07:51.767Z,19.56
2018-04-26T13:08:54.398Z,19.55
2018-04-26T13:09:56.956Z,19.54
2018-04-26T13:10:59.520Z,19.55
2018-04-26T13:12:02.104Z,19.55
2018-04-26T13:13:04.614Z,19.54
2018-04-26T13:14:07.121Z,19.54
2018-04-26T13:15:09.603Z,19.54
2018-04-26T13:16:12.074Z,19.54
2018-04-26T13:17:14.634Z,19.54
2018-04-26T13:18:17.074Z,19.54
2018-04-26T13:19:19.577Z,19.54
2018-04-26T13:20:22.148Z,19.55
2018-04-26T13:21:24.719Z,19.54
2018-04-26T13:22:27.267Z,19.54
2018-04-26T13:23:29.757Z,19.53
2018-04-26T13:24:32.285Z,19.54
2018-04-26T13:25:34.777Z,19.53
2018-04-26T13:26:37.293Z,19.53
2018-04-26T13:27:39.776Z,19.53
2018-04-26T13:28:42.275Z,19.53